Time;durP1;ratioP1;P1;durP2;ratioP2;P2;SDS_P1;SDS_P2;PMS_P1;PMS_P2;Temp;Humidity;BMP_temperature;BMP_pressure;BME280_temperature;BME280_humidity;BME280_pressure;Samples;Min_cycle;Max_cycle;Signal;HPM_P1;HPM_P2
2024/04/20 00:01:00;;;;;;;9.88;3.10;;;;;;;8.73;100.00;101545.81;5637132;26;20028;-74
2024/04/20 00:03:32;;;;;;;11.30;2.72;;;;;;;8.74;100.00;101539.66;5635147;26;20071;-74
2024/04/20 00:06:05;;;;;;;9.95;2.65;;;;;;;8.72;100.00;101543.34;5627898;26;20355;-74
2024/04/20 00:08:37;;;;;;;10.73;2.67;;;;;;;8.73;100.00;101547.59;5632691;26;20458;-75
2024/04/20 00:11:09;;;;;;;13.13;3.08;;;;;;;8.71;100.00;101552.94;5632933;26;20015;-74
2024/04/20 00:13:44;;;;;;;14.48;3.35;;;;;;;8.74;100.00;101559.72;5626643;26;20035;-76
2024/04/20 00:16:16;;;;;;;14.10;3.35;;;;;;;8.65;100.00;101548.13;5644611;26;20707;-75
2024/04/20 00:18:48;;;;;;;9.38;2.50;;;;;;;8.58;100.00;101551.22;5634531;26;20035;-73
2024/04/20 00:21:20;;;;;;;11.77;2.67;;;;;;;8.63;100.00;101570.88;5626906;26;20452;-76
2024/04/20 00:23:52;;;;;;;13.00;2.97;;;;;;;8.65;100.00;101574.22;5634519;26;20439;-77
2024/04/20 00:26:24;;;;;;;12.43;2.97;;;;;;;8.60;100.00;101578.06;5642700;26;20720;-77
2024/04/20 00:28:56;;;;;;;12.77;3.28;;;;;;;8.65;100.00;101570.78;5629452;26;20017;-78
2024/04/20 00:31:28;;;;;;;10.13;2.97;;;;;;;8.60;100.00;101570.22;5635532;26;20002;-74
2024/04/20 00:34:00;;;;;;;9.38;2.42;;;;;;;8.64;100.00;101579.56;5654694;26;20003;-77
2024/04/20 00:36:31;;;;;;;9.23;3.00;;;;;;;8.64;100.00;101579.56;5641493;26;20039;-77
2024/04/20 00:39:03;;;;;;;13.05;3.08;;;;;;;8.59;100.00;101582.44;5640415;26;20116;-76
2024/04/20 00:41:35;;;;;;;8.07;2.22;;;;;;;8.54;100.00;101574.09;5638148;26;19999;-74
2024/04/20 00:44:07;;;;;;;9.40;2.50;;;;;;;8.49;100.00;101579.63;5638738;26;20011;-74
2024/04/20 00:46:41;;;;;;;6.88;2.03;;;;;;;8.48;100.00;101577.91;5630732;26;20043;-74
2024/04/20 00:49:14;;;;;;;8.02;2.47;;;;;;;8.39;100.00;101583.75;5645190;26;20413;-76
2024/04/20 00:51:46;;;;;;;9.05;1.90;;;;;;;8.32;100.00;101578.97;5636819;26;20000;-74
2024/04/20 00:54:18;;;;;;;6.15;1.73;;;;;;;8.33;100.00;101593.69;5634729;26;20734;-75
2024/04/20 00:56:50;;;;;;;6.53;1.40;;;;;;;8.38;100.00;101587.28;5628619;26;20003;-74
2024/04/20 00:59:22;;;;;;;8.00;1.90;;;;;;;8.31;100.00;101590.38;5637878;26;20030;-76
2024/04/20 01:01:54;;;;;;;6.63;1.90;;;;;;;8.35;100.00;101595.28;5630899;26;20050;-73
2024/04/20 01:04:26;;;;;;;7.43;1.80;;;;;;;8.34;100.00;101585.78;5636120;26;20002;-74
2024/04/20 01:06:58;;;;;;;6.65;1.88;;;;;;;8.36;100.00;101596.94;5628137;26;20007;-74
2024/04/20 01:09:30;;;;;;;6.97;1.60;;;;;;;8.34;100.00;101595.41;5635301;26;19999;-74
2024/04/20 01:12:02;;;;;;;9.80;2.35;;;;;;;8.36;100.00;101607.41;5640421;26;20006;-73
2024/04/20 01:14:34;;;;;;;8.48;2.20;;;;;;;8.39;100.00;101595.97;5633315;26;20031;-73
2024/04/20 01:17:06;;;;;;;5.32;1.88;;;;;;;8.40;100.00;101601.06;5631576;26;20467;-77
2024/04/20 01:19:38;;;;;;;8.73;1.90;;;;;;;8.37;100.00;101611.75;5639365;26;20615;-74
2024/04/20 01:22:11;;;;;;;7.07;1.55;;;;;;;8.37;100.00;101605.63;5627439;26;20007;-76
2024/04/20 01:24:45;;;;;;;7.00;1.90;;;;;;;8.43;100.00;101600.88;5628947;26;20035;-77
2024/04/20 01:27:17;;;;;;;;;;;;;;;9.09;100.00;101607.06;5638923;26;20484;-74
2024/04/20 01:29:48;;;;;;;3.47;1.50;;;;;;;8.50;100.00;101610.00;5631937;26;19931;-74
2024/04/20 01:32:20;;;;;;;7.65;1.80;;;;;;;8.49;100.00;101616.19;5641217;26;20093;-77
2024/04/20 01:34:52;;;;;;;6.15;2.08;;;;;;;8.44;100.00;101607.78;5625792;26;20011;-75
2024/04/20 01:37:24;;;;;;;5.80;1.60;;;;;;;8.45;100.00;101612.09;5624347;26;20022;-76
2024/04/20 01:39:56;;;;;;;9.68;2.40;;;;;;;8.42;100.00;101616.66;5625472;26;19999;-75
2024/04/20 01:42:28;;;;;;;9.23;2.10;;;;;;;8.43;100.00;101613.09;5639884;26;20015;-75
2024/04/20 01:45:00;;;;;;;7.57;2.28;;;;;;;8.40;100.00;101608.06;5626713;26;20035;-74
2024/04/20 01:47:32;;;;;;;15.48;3.22;;;;;;;8.42;100.00;101609.66;5650352;26;20003;-76
2024/04/20 01:50:04;;;;;;;6.20;1.90;;;;;;;8.42;100.00;101621.88;5633272;26;20011;-74
2024/04/20 01:52:36;;;;;;;8.38;2.08;;;;;;;8.45;100.00;101611.25;5650690;26;20032;-74
2024/04/20 01:55:08;;;;;;;10.60;2.50;;;;;;;8.33;100.00;101606.75;5634301;26;20052;-77
2024/04/20 01:57:40;;;;;;;8.80;2.38;;;;;;;8.40;100.00;101614.13;5630413;26;20054;-74
2024/04/20 02:00:13;;;;;;;8.15;2.28;;;;;;;8.34;100.00;101622.34;5625452;26;20457;-75
2024/04/20 02:02:45;;;;;;;6.32;1.65;;;;;;;8.44;100.00;101626.06;5624699;26;20004;-75
2024/04/20 02:05:18;;;;;;;10.98;2.60;;;;;;;8.43;100.00;101629.59;5623065;26;20544;-74
2024/04/20 02:07:50;;;;;;;8.40;2.40;;;;;;;8.47;100.00;101635.47;5628486;26;20449;-76
2024/04/20 02:10:22;;;;;;;10.93;2.67;;;;;;;8.36;100.00;101622.22;5649534;26;20463;-73
2024/04/20 02:12:54;;;;;;;12.35;2.78;;;;;;;8.37;100.00;101632.63;5653453;26;20003;-76
2024/04/20 02:15:26;;;;;;;9.32;2.42;;;;;;;8.40;100.00;101640.25;5640280;26;20010;-74
2024/04/20 02:17:58;;;;;;;10.80;2.90;;;;;;;8.33;100.00;101635.47;5634522;26;20436;-76
2024/04/20 02:20:30;;;;;;;9.50;2.60;;;;;;;8.32;100.00;101639.03;5627191;26;20350;-74
2024/04/20 02:23:02;;;;;;;12.27;2.53;;;;;;;8.34;100.00;101652.84;5643503;26;20018;-74
2024/04/20 02:25:34;;;;;;;10.75;2.97;;;;;;;8.24;100.00;101631.66;5635218;26;19995;-77
2024/04/20 02:28:06;;;;;;;13.55;3.40;;;;;;;8.34;100.00;101653.66;5646949;26;20035;-74
2024/04/20 02:30:38;;;;;;;15.15;3.25;;;;;;;8.35;100.00;101659.72;5652897;26;20042;-74
2024/04/20 02:33:09;;;;;;;12.90;3.10;;;;;;;8.32;100.00;101660.75;5631188;26;20472;-77
2024/04/20 02:35:41;;;;;;;9.35;2.20;;;;;;;8.25;100.00;101659.44;5633071;26;20085;-75
2024/04/20 02:38:13;;;;;;;11.02;2.45;;;;;;;8.25;100.00;101664.66;5630907;26;20007;-75
2024/04/20 02:40:45;;;;;;;11.73;3.38;;;;;;;8.27;100.00;101671.47;5643665;26;21062;-74
2024/04/20 02:43:17;;;;;;;12.15;3.50;;;;;;;8.27;100.00;101673.25;5645085;26;20026;-73
2024/04/20 02:45:49;;;;;;;11.00;2.80;;;;;;;8.26;100.00;101669.81;5641396;26;20010;-74
2024/04/20 02:48:21;;;;;;;11.75;3.03;;;;;;;8.18;100.00;101666.84;5644702;26;20006;-75
2024/04/20 02:50:53;;;;;;;11.55;2.90;;;;;;;8.18;100.00;101663.38;5650684;26;20037;-74
2024/04/20 02:53:25;;;;;;;11.07;2.47;;;;;;;8.25;100.00;101681.16;5656261;26;20508;-76
2024/04/20 02:55:57;;;;;;;11.82;2.40;;;;;;;8.20;100.00;101672.78;5642337;26;20011;-73
2024/04/20 02:58:30;;;;;;;12.88;2.17;;;;;;;8.27;100.00;101681.91;5648142;26;20697;-74
2024/04/20 03:01:02;;;;;;;12.18;2.55;;;;;;;8.29;100.00;101684.41;5629251;26;20082;-77
2024/04/20 03:03:37;;;;;;;12.57;3.15;;;;;;;8.28;100.00;101682.75;5650847;26;20050;-75
2024/04/20 03:06:09;;;;;;;11.50;2.42;;;;;;;8.22;100.00;101685.72;5635009;26;20027;-74
2024/04/20 03:08:41;;;;;;;17.40;3.42;;;;;;;8.24;100.00;101695.16;5642690;26;20018;-73
2024/04/20 03:11:13;;;;;;;11.40;2.63;;;;;;;8.22;100.00;101696.16;5641827;26;20003;-74
2024/04/20 03:13:45;;;;;;;12.48;2.72;;;;;;;8.16;100.00;101681.75;5644241;26;20019;-77
2024/04/20 03:16:19;;;;;;;11.73;2.78;;;;;;;8.23;100.00;101701.31;5657914;26;21477;-73
2024/04/20 03:18:51;;;;;;;10.50;2.47;;;;;;;8.23;100.00;101701.31;5644764;26;20003;-74
2024/04/20 03:21:23;;;;;;;10.13;2.42;;;;;;;8.24;100.00;101705.59;5646426;26;20022;-74
2024/04/20 03:23:55;;;;;;;14.50;2.72;;;;;;;8.22;100.00;101694.44;5632270;26;19998;-75
2024/04/20 03:26:29;;;;;;;11.40;2.75;;;;;;;8.24;100.00;101700.38;5653013;26;19998;-75
2024/04/20 03:29:01;;;;;;;9.52;2.80;;;;;;;8.22;100.00;101704.00;5637119;26;20496;-77
2024/04/20 03:31:32;;;;;;;11.23;3.15;;;;;;;8.18;100.00;101689.47;5649061;26;20003;-75
2024/04/20 03:34:04;;;;;;;12.38;3.13;;;;;;;8.27;100.00;101710.63;5642808;26;20052;-75
2024/04/20 03:36:36;;;;;;;11.23;3.13;;;;;;;8.28;100.00;101709.69;5646602;26;20015;-73
2024/04/20 03:39:12;;;;;;;14.98;2.95;;;;;;;8.37;100.00;101716.19;5645805;26;20017;-73
2024/04/20 03:41:44;;;;;;;14.10;3.05;;;;;;;8.31;100.00;101718.28;5637324;26;20036;-75
2024/04/20 03:44:16;;;;;;;12.20;3.00;;;;;;;8.27;100.00;101725.47;5647593;26;20051;-74
2024/04/20 03:46:48;;;;;;;10.02;2.45;;;;;;;8.22;100.00;101707.47;5639658;26;20039;-74
2024/04/20 03:49:20;;;;;;;16.65;3.20;;;;;;;8.24;100.00;101718.66;5647650;26;19996;-74
2024/04/20 03:51:52;;;;;;;14.40;3.05;;;;;;;8.28;100.00;101729.75;5654879;26;20779;-73
2024/04/20 03:54:24;;;;;;;13.57;2.72;;;;;;;8.27;100.00;101725.47;5623612;26;20375;-75
2024/04/20 03:56:56;;;;;;;12.00;3.03;;;;;;;8.24;100.00;101728.25;5632216;26;20038;-73
2024/04/20 03:59:28;;;;;;;12.27;3.35;;;;;;;8.23;100.00;101730.03;5630368;26;20057;-73
2024/04/20 04:01:59;;;;;;;16.35;3.17;;;;;;;8.25;100.00;101737.75;5643816;26;20157;-73
2024/04/20 04:04:31;;;;;;;8.50;2.17;;;;;;;8.23;100.00;101737.88;5637897;26;20000;-73
2024/04/20 04:07:03;;;;;;;12.82;2.83;;;;;;;8.19;100.00;101736.38;5640289;26;20015;-73
2024/04/20 04:09:35;;;;;;;10.88;2.58;;;;;;;8.21;100.00;101741.50;5644134;26;20035;-73
2024/04/20 04:12:07;;;;;;;13.18;3.08;;;;;;;8.19;100.00;101748.59;5646763;26;20005;-73
2024/04/20 04:14:40;;;;;;;10.35;2.30;;;;;;;8.24;100.00;101744.75;5649108;26;20335;-74
2024/04/20 04:17:12;;;;;;;13.60;3.47;;;;;;;7.90;100.00;101690.31;5635381;26;20604;-73
2024/04/20 04:19:44;;;;;;;10.52;2.47;;;;;;;8.18;100.00;101742.53;5642164;26;20025;-77
2024/04/20 04:22:15;;;;;;;12.00;2.72;;;;;;;8.18;100.00;101746.88;5646966;26;19999;-74
2024/04/20 04:24:47;;;;;;;14.05;2.95;;;;;;;8.13;100.00;101747.16;5629408;26;20004;-74
2024/04/20 04:27:19;;;;;;;15.68;3.40;;;;;;;8.14;100.00;101761.06;5643890;26;20498;-74
2024/04/20 04:29:51;;;;;;;8.70;2.88;;;;;;;8.17;100.00;101758.28;5637392;26;20003;-76
2024/04/20 04:32:24;;;;;;;13.25;2.85;;;;;;;8.19;100.00;101761.66;5640233;26;20014;-74
2024/04/20 04:34:56;;;;;;;;;;;;;;;8.83;100.00;101768.16;5641571;26;20052;-75
2024/04/20 04:37:29;;;;;;;12.73;2.65;;;;;;;8.18;100.00;101757.31;5635232;26;19976;-76
2024/04/20 04:40:00;;;;;;;11.93;2.42;;;;;;;8.20;100.00;101771.16;5645404;26;20404;-73
2024/04/20 04:42:32;;;;;;;13.18;2.40;;;;;;;8.10;100.00;101759.56;5632680;26;20016;-77
2024/04/20 04:45:05;;;;;;;11.18;2.53;;;;;;;8.23;100.00;101781.41;5632368;26;20559;-74
2024/04/20 04:47:36;;;;;;;8.82;2.20;;;;;;;8.24;100.00;101780.47;5633871;26;20057;-74
2024/04/20 04:50:08;;;;;;;11.10;3.05;;;;;;;8.23;100.00;101782.25;5638925;26;20011;-74
2024/04/20 04:52:40;;;;;;;14.35;2.65;;;;;;;8.23;100.00;101784.84;5640079;26;20371;-73
2024/04/20 04:55:12;;;;;;;8.25;2.35;;;;;;;8.26;100.00;101789.06;5646456;26;20044;-77
2024/04/20 04:57:44;;;;;;;14.68;3.15;;;;;;;8.28;100.00;101797.63;5651252;26;20017;-74
2024/04/20 05:00:16;;;;;;;15.75;3.22;;;;;;;8.26;100.00;101797.72;5635444;26;20018;-76
2024/04/20 05:02:48;;;;;;;9.52;2.58;;;;;;;8.32;100.00;101806.94;5651075;26;20055;-73
2024/04/20 05:05:20;;;;;;;10.68;2.53;;;;;;;8.28;100.00;101810.69;5637608;26;20622;-76
2024/04/20 05:07:52;;;;;;;11.13;2.70;;;;;;;8.34;100.00;101812.94;5642948;26;20003;-76
2024/04/20 05:10:26;;;;;;;12.93;3.38;;;;;;;8.27;100.00;101807.22;5641184;26;20014;-75
2024/04/20 05:12:59;;;;;;;11.95;2.70;;;;;;;8.29;100.00;101810.56;5654117;26;20021;-73
2024/04/20 05:15:31;;;;;;;10.32;2.72;;;;;;;8.40;100.00;101820.41;5639783;26;20035;-75
2024/04/20 05:18:05;;;;;;;11.82;2.47;;;;;;;8.35;100.00;101817.22;5646445;26;20488;-76
2024/04/20 05:20:37;;;;;;;12.38;2.22;;;;;;;8.37;100.00;101820.63;5634974;26;20047;-76
2024/04/20 05:23:11;;;;;;;9.75;2.75;;;;;;;8.45;100.00;101834.06;5650229;26;19994;-76
2024/04/20 05:25:43;;;;;;;8.15;2.08;;;;;;;8.48;100.00;101833.84;5648135;26;20038;-75
2024/04/20 05:28:15;;;;;;;11.48;2.92;;;;;;;8.46;100.00;101825.28;5645472;26;20058;-76
2024/04/20 05:30:47;;;;;;;10.70;2.22;;;;;;;8.59;100.00;101837.59;5643615;26;20357;-73
2024/04/20 05:33:19;;;;;;;9.93;2.33;;;;;;;8.59;100.00;101838.44;5626290;26;20018;-75
2024/04/20 05:35:52;;;;;;;9.43;3.00;;;;;;;8.57;100.00;101844.69;5637368;26;20348;-75
2024/04/20 05:38:24;;;;;;;8.23;2.40;;;;;;;8.65;100.00;101855.50;5634383;26;20051;-75
2024/04/20 05:40:56;;;;;;;9.85;2.85;;;;;;;8.62;100.00;101853.09;5646889;26;20010;-75
2024/04/20 05:43:27;;;;;;;10.57;2.60;;;;;;;8.67;100.00;101861.47;5639500;26;20031;-76
2024/04/20 05:45:59;;;;;;;10.85;2.55;;;;;;;8.65;100.00;101852.91;5647452;26;20025;-74
2024/04/20 05:48:33;;;;;;;12.90;2.95;;;;;;;8.72;100.00;101869.88;5633318;26;20010;-76
2024/04/20 05:51:05;;;;;;;12.02;2.85;;;;;;;8.74;100.00;101875.84;5638244;26;20040;-76
2024/04/20 05:53:37;;;;;;;7.97;2.10;;;;;;;8.81;100.00;101873.72;5654529;26;20013;-73
2024/04/20 05:56:10;;;;;;;8.45;1.70;;;;;;;8.79;100.00;101865.97;5628846;26;20000;-74
2024/04/20 05:58:42;;;;;;;10.00;2.25;;;;;;;8.89;100.00;101867.06;5644810;26;20025;-73
2024/04/20 06:01:15;;;;;;;7.28;2.33;;;;;;;8.89;100.00;101868.84;5634760;26;20010;-76
2024/04/20 06:03:47;;;;;;;;;;;;;;;9.70;100.00;101893.38;5637015;26;20047;-76
2024/04/20 06:06:19;;;;;;;11.45;2.25;;;;;;;9.23;100.00;101889.34;5631955;26;19925;-74
2024/04/20 06:08:50;;;;;;;8.90;2.30;;;;;;;9.31;100.00;101901.09;5633087;26;20044;-74
2024/04/20 06:11:22;;;;;;;11.73;2.88;;;;;;;9.30;100.00;101897.66;5638477;26;19999;-74
2024/04/20 06:13:54;;;;;;;9.82;2.08;;;;;;;9.38;100.00;101891.94;5644504;26;20035;-77
2024/04/20 06:16:26;;;;;;;8.45;1.98;;;;;;;9.52;100.00;101897.16;5636748;26;19999;-74
2024/04/20 06:18:58;;;;;;;6.15;1.70;;;;;;;9.52;100.00;101906.78;5648621;26;20003;-74
2024/04/20 06:21:33;;;;;;;7.90;2.10;;;;;;;9.68;100.00;101899.63;5639501;26;20006;-74
2024/04/20 06:24:06;;;;;;;9.07;2.05;;;;;;;9.70;100.00;101913.47;5631131;26;20035;-74
2024/04/20 06:26:37;;;;;;;7.70;2.00;;;;;;;9.79;100.00;101914.63;5645983;26;20476;-73
2024/04/20 06:29:09;;;;;;;7.97;2.55;;;;;;;9.73;96.04;101908.00;5637162;26;20260;-74
2024/04/20 06:31:41;;;;;;;9.07;1.98;;;;;;;9.73;100.00;101903.59;5649653;26;20009;-74
2024/04/20 06:34:13;;;;;;;9.80;2.30;;;;;;;9.86;100.00;101913.31;5631932;26;20004;-75
2024/04/20 06:36:45;;;;;;;9.18;2.20;;;;;;;9.75;96.71;101904.38;5634656;26;20011;-73
2024/04/20 06:39:18;;;;;;;8.35;1.80;;;;;;;9.93;100.00;101919.84;5630005;26;20263;-74
2024/04/20 06:41:53;;;;;;;10.00;2.15;;;;;;;9.91;92.64;101925.16;5636078;26;20055;-74
2024/04/20 06:44:24;;;;;;;7.95;2.10;;;;;;;9.88;90.79;101937.59;5634709;26;20741;-77
2024/04/20 06:46:58;;;;;;;9.05;2.05;;;;;;;9.91;93.32;101934.78;5644118;26;20000;-74
2024/04/20 06:49:29;;;;;;;;;;;;;;;10.56;93.38;101934.84;5642688;26;20039;-74
2024/04/20 06:52:01;;;;;;;6.90;1.88;;;;;;;9.92;90.18;101929.44;5638215;26;19932;-74
2024/04/20 06:54:33;;;;;;;7.30;2.00;;;;;;;9.94;87.37;101945.91;5640237;26;20043;-77
2024/04/20 06:57:05;;;;;;;7.63;2.03;;;;;;;9.81;83.75;101925.84;5642909;26;19999;-74
2024/04/20 06:59:37;;;;;;;7.07;1.50;;;;;;;9.86;86.96;101927.22;5636134;26;20099;-73
2024/04/20 07:02:09;;;;;;;9.45;1.65;;;;;;;10.02;85.87;101952.41;5629057;26;20019;-77
2024/04/20 07:04:41;;;;;;;8.68;2.00;;;;;;;9.98;87.38;101950.00;5633088;26;19998;-73
2024/04/20 07:07:13;;;;;;;9.98;2.08;;;;;;;10.09;86.41;101961.56;5631780;26;20003;-75
2024/04/20 07:09:48;;;;;;;8.80;2.15;;;;;;;10.21;87.69;101971.22;5636700;26;20035;-76
2024/04/20 07:12:20;;;;;;;5.50;1.38;;;;;;;10.16;82.45;101974.16;5647641;26;20054;-74
2024/04/20 07:14:52;;;;;;;6.20;1.70;;;;;;;10.20;84.24;101975.63;5637332;26;21535;-75
2024/04/20 07:17:24;;;;;;;7.45;1.52;;;;;;;10.21;86.88;101979.09;5640213;26;20379;-73
2024/04/20 07:19:58;;;;;;;9.90;2.45;;;;;;;10.29;84.21;101983.84;5632278;26;19998;-73
2024/04/20 07:22:30;;;;;;;6.90;1.80;;;;;;;10.33;86.09;101978.31;5643100;26;20017;-74
2024/04/20 07:25:02;;;;;;;8.13;2.28;;;;;;;10.40;89.75;101976.97;5645265;26;20005;-74
2024/04/20 07:27:34;;;;;;;9.75;1.98;;;;;;;10.42;84.23;101990.81;5640259;26;20093;-75
2024/04/20 07:30:07;;;;;;;13.40;2.38;;;;;;;10.43;82.53;101983.78;5640420;26;20004;-74
2024/04/20 07:32:39;;;;;;;8.68;2.17;;;;;;;10.37;80.01;102003.38;5634078;26;20019;-74
2024/04/20 07:35:13;;;;;;;8.40;2.25;;;;;;;10.32;82.12;102005.44;5630216;26;20019;-74
2024/04/20 07:37:45;;;;;;;6.63;1.83;;;;;;;10.39;79.56;102008.53;5637945;26;20000;-77
2024/04/20 07:40:17;;;;;;;6.72;1.58;;;;;;;10.32;77.23;101996.75;5637747;26;19999;-74
2024/04/20 07:42:49;;;;;;;8.60;2.05;;;;;;;10.27;78.43;102011.94;5642684;26;20003;-77
2024/04/20 07:45:21;;;;;;;5.75;1.70;;;;;;;10.30;80.94;102009.09;5620928;26;20050;-74
2024/04/20 07:47:53;;;;;;;8.88;2.00;;;;;;;10.33;79.89;102017.59;5628552;26;20380;-73
2024/04/20 07:50:25;;;;;;;6.50;1.60;;;;;;;10.28;76.15;102014.44;5637090;26;20011;-76
2024/04/20 07:52:57;;;;;;;7.07;1.92;;;;;;;10.43;76.14;102026.56;5636191;26;20013;-74
2024/04/20 07:55:29;;;;;;;8.23;1.95;;;;;;;10.44;74.39;102028.22;5639452;26;20008;-73
2024/04/20 07:58:01;;;;;;;5.07;1.40;;;;;;;10.56;71.84;102026.56;5635163;26;20037;-75
2024/04/20 08:00:32;;;;;;;10.95;2.28;;;;;;;10.77;73.13;102034.81;5641058;26;20451;-73
2024/04/20 08:03:05;;;;;;;6.35;1.73;;;;;;;10.95;78.54;102028.34;5644707;26;19999;-77
2024/04/20 08:05:38;;;;;;;7.20;1.45;;;;;;;11.07;72.33;102044.19;5634701;26;20030;-74
2024/04/20 08:08:10;;;;;;;;;;;;;;;11.76;71.98;102037.63;5640086;26;20482;-74
2024/04/20 08:10:41;;;;;;;6.70;1.40;;;;;;;11.17;70.55;102045.22;5639493;26;19925;-74
2024/04/20 08:13:13;;;;;;;7.70;1.70;;;;;;;11.07;70.18;102057.31;5642307;26;20003;-74
2024/04/20 08:15:47;;;;;;;7.15;1.58;;;;;;;10.98;68.18;102045.63;5641003;26;20047;-77
2024/04/20 08:18:18;;;;;;;7.63;1.98;;;;;;;11.09;75.73;102042.28;5640918;26;20025;-75
2024/04/20 08:20:53;;;;;;;9.00;1.98;;;;;;;11.04;72.25;102065.38;5630013;26;20990;-73
2024/04/20 08:23:26;;;;;;;7.90;1.42;;;;;;;11.04;70.42;102057.50;5636121;26;20031;-75
2024/04/20 08:25:57;;;;;;;8.48;2.45;;;;;;;11.02;71.88;102078.56;5633106;26;20500;-76
2024/04/20 08:28:29;;;;;;;7.55;2.05;;;;;;;10.95;69.24;102079.94;5633418;26;20007;-75
2024/04/20 08:31:02;;;;;;;7.95;1.80;;;;;;;10.82;70.24;102076.44;5637623;26;20000;-74
2024/04/20 08:33:34;;;;;;;7.97;1.90;;;;;;;10.91;74.59;102074.06;5636840;26;20003;-76
2024/04/20 08:36:06;;;;;;;6.90;1.50;;;;;;;10.95;69.05;102075.53;5644450;26;20461;-75
2024/04/20 08:38:38;;;;;;;7.43;2.00;;;;;;;10.97;70.71;102088.53;5642437;26;20378;-75
2024/04/20 08:41:15;;;;;;;8.73;2.08;;;;;;;11.03;70.87;102076.81;5639301;26;20015;-74
2024/04/20 08:43:50;;;;;;;6.07;1.67;;;;;;;11.11;70.37;102095.50;5643040;26;20031;-75
2024/04/20 08:46:22;;;;;;;7.88;1.65;;;;;;;11.21;69.29;102078.16;5635605;26;20028;-75
2024/04/20 08:48:57;;;;;;;9.73;1.92;;;;;;;11.41;67.84;102092.56;5640420;26;20039;-76
2024/04/20 08:51:31;;;;;;;5.57;1.58;;;;;;;11.43;64.10;102098.53;5633391;26;20631;-75
2024/04/20 08:54:05;;;;;;;7.35;1.67;;;;;;;11.39;61.90;102097.06;5643649;26;20009;-75
2024/04/20 08:56:40;;;;;;;8.10;1.63;;;;;;;11.44;64.55;102097.63;5635744;26;20794;-75
2024/04/20 08:59:12;;;;;;;7.90;1.50;;;;;;;11.56;64.25;102094.16;5633955;26;19999;-76
2024/04/20 09:01:46;;;;;;;7.25;2.13;;;;;;;11.55;62.63;102099.47;5638417;26;20341;-75
2024/04/20 09:04:18;;;;;;;5.65;1.70;;;;;;;11.64;62.42;102109.38;5635336;26;20043;-76
2024/04/20 09:06:50;;;;;;;5.07;1.27;;;;;;;11.64;58.85;102096.25;5634644;26;20362;-76
2024/04/20 09:09:22;;;;;;;4.95;1.20;;;;;;;11.85;56.85;102113.13;5634804;26;20030;-73
2024/04/20 09:11:54;;;;;;;7.13;1.45;;;;;;;11.89;59.03;102106.75;5634348;26;20042;-75
2024/04/20 09:14:27;;;;;;;8.02;1.48;;;;;;;11.89;58.43;102112.00;5638761;26;20019;-74
2024/04/20 09:16:59;;;;;;;6.63;1.75;;;;;;;12.05;57.41;102113.53;5636722;26;20039;-75
2024/04/20 09:19:31;;;;;;;5.60;1.60;;;;;;;11.99;61.18;102106.94;5626011;26;20386;-75
2024/04/20 09:22:10;;;;;;;7.85;1.88;;;;;;;12.20;61.29;102109.84;5633056;26;20114;-73
2024/04/20 09:24:42;;;;;;;5.65;1.50;;;;;;;11.78;59.73;102118.88;5623909;26;20004;-75
2024/04/20 09:27:14;;;;;;;5.75;1.60;;;;;;;11.66;60.83;102120.59;5634089;26;20019;-77
2024/04/20 09:29:46;;;;;;;6.15;1.33;;;;;;;11.61;58.71;102109.56;5631814;26;20031;-74
2024/04/20 09:32:22;;;;;;;6.45;1.60;;;;;;;11.51;58.42;102105.88;5639748;26;20014;-75
2024/04/20 09:34:54;;;;;;;8.50;1.92;;;;;;;11.54;59.78;102114.41;5631976;26;20050;-74
2024/04/20 09:37:26;;;;;;;7.70;1.83;;;;;;;11.71;62.31;102115.88;5641369;26;20449;-75
2024/04/20 09:39:58;;;;;;;5.63;1.67;;;;;;;11.68;62.74;102110.84;5636890;26;20687;-74
2024/04/20 09:42:30;;;;;;;8.23;1.80;;;;;;;11.68;64.30;102126.59;5640062;26;20007;-76
2024/04/20 09:45:04;;;;;;;6.75;2.08;;;;;;;11.58;62.92;102118.47;5648169;26;20031;-75
2024/04/20 09:47:37;;;;;;;5.60;1.85;;;;;;;11.59;61.24;102114.06;5643234;26;19999;-76
2024/04/20 09:50:12;;;;;;;7.88;1.85;;;;;;;11.59;60.07;102129.81;5633326;26;20004;-74
2024/04/20 09:52:53;;;;;;;6.97;1.80;;;;;;;11.71;64.32;102129.00;5640982;26;20018;-76
2024/04/20 09:55:30;;;;;;;7.60;1.75;;;;;;;11.63;56.81;102120.78;5637781;26;20047;-76
2024/04/20 09:58:03;;;;;;;5.85;1.50;;;;;;;11.57;59.22;102126.47;5636857;26;20790;-76
2024/04/20 10:00:36;;;;;;;8.70;2.20;;;;;;;11.75;59.35;102122.59;5626578;26;20452;-73
2024/04/20 10:03:08;;;;;;;5.78;1.63;;;;;;;11.97;54.47;102110.59;5632398;26;20043;-73
2024/04/20 10:05:40;;;;;;;8.40;2.30;;;;;;;12.20;56.77;102104.56;5626353;26;20013;-77
2024/04/20 10:08:14;;;;;;;7.50;1.33;;;;;;;12.40;55.62;102109.22;5643859;26;20010;-76
2024/04/20 10:10:46;;;;;;;6.93;2.10;;;;;;;12.43;55.30;102102.91;5623771;26;20118;-75
2024/04/20 10:13:19;;;;;;;9.82;2.22;;;;;;;12.27;56.50;102116.28;5627170;26;20017;-76
2024/04/20 10:15:54;;;;;;;3.88;1.42;;;;;;;12.13;55.82;102116.47;5627171;26;20029;-77
2024/04/20 10:18:26;;;;;;;9.27;1.95;;;;;;;12.04;55.36;102115.31;5623486;26;20000;-76
2024/04/20 10:20:58;;;;;;;8.82;2.28;;;;;;;12.21;57.13;102121.19;5638433;26;20320;-75
2024/04/20 10:23:30;;;;;;;6.68;1.60;;;;;;;12.37;55.67;102112.06;5633679;26;20411;-75
2024/04/20 10:26:02;;;;;;;7.78;2.15;;;;;;;12.46;53.24;102114.97;5637909;26;19999;-75
2024/04/20 10:28:38;;;;;;;5.43;1.70;;;;;;;12.43;49.22;102110.81;5633267;26;20033;-76
2024/04/20 10:31:10;;;;;;;5.85;1.95;;;;;;;12.57;47.57;102109.78;5635913;26;20003;-75
2024/04/20 10:33:43;;;;;;;5.30;1.35;;;;;;;12.79;48.85;102115.13;5643224;26;19998;-75
2024/04/20 10:36:27;;;;;;;4.82;1.45;;;;;;;12.96;50.30;102113.06;5637105;26;20047;-74
2024/04/20 10:39:06;;;;;;;3.75;1.25;;;;;;;12.75;50.33;102112.84;5637518;26;20027;-75
2024/04/20 10:41:39;;;;;;;4.65;1.63;;;;;;;12.62;48.36;102116.41;5647184;26;20013;-76
2024/04/20 10:44:15;;;;;;;4.97;1.95;;;;;;;12.95;49.50;102127.16;5642375;26;20610;-76
2024/04/20 10:46:47;;;;;;;7.82;1.67;;;;;;;13.08;49.80;102135.81;5642233;26;20057;-75
2024/04/20 10:49:24;;;;;;;6.20;1.42;;;;;;;13.20;48.95;102108.59;5642214;26;20032;-76
2024/04/20 10:51:58;;;;;;;6.68;1.73;;;;;;;13.25;47.56;102119.63;5640804;26;20013;-74
2024/04/20 10:54:31;;;;;;;4.90;1.35;;;;;;;13.39;49.86;102116.78;5646492;26;20017;-75
2024/04/20 10:57:04;;;;;;;4.90;1.30;;;;;;;13.47;48.32;102118.00;5641045;26;20021;-76
2024/04/20 10:59:43;;;;;;;5.35;1.27;;;;;;;13.65;48.72;102119.22;5639048;26;20035;-76
2024/04/20 11:02:15;;;;;;;6.68;1.80;;;;;;;13.88;48.56;102104.25;5646876;26;20014;-77
2024/04/20 11:04:47;;;;;;;4.75;1.73;;;;;;;14.29;48.11;102106.22;5635271;26;20039;-77
2024/04/20 11:07:18;;;;;;;5.78;1.70;;;;;;;14.33;46.42;102112.91;5637412;26;20431;-74
2024/04/20 11:09:52;;;;;;;9.20;2.10;;;;;;;14.30;46.28;102125.50;5647568;26;20014;-76
2024/04/20 11:12:24;;;;;;;6.05;1.55;;;;;;;14.22;46.95;102114.75;5645398;26;20010;-76
2024/04/20 11:15:01;;;;;;;7.50;2.28;;;;;;;14.12;48.43;102119.91;5637247;26;20007;-76
2024/04/20 11:17:36;;;;;;;7.78;2.15;;;;;;;14.02;51.53;102127.72;5633941;26;20047;-76
2024/04/20 11:20:09;;;;;;;4.82;1.40;;;;;;;13.61;45.38;102123.03;5634782;26;20008;-75
2024/04/20 11:22:41;;;;;;;4.53;1.20;;;;;;;13.46;45.09;102137.38;5633437;26;20461;-76
2024/04/20 11:25:13;;;;;;;5.78;1.30;;;;;;;13.39;45.94;102116.78;5631058;26;20034;-76
2024/04/20 11:27:47;;;;;;;4.07;1.30;;;;;;;13.72;47.12;102128.31;5642982;26;20369;-78
2024/04/20 11:30:19;;;;;;;4.88;1.40;;;;;;;14.05;47.83;102134.50;5629045;26;20456;-75
2024/04/20 11:32:58;;;;;;;6.07;1.60;;;;;;;14.09;47.43;102122.78;5637454;26;20011;-75
2024/04/20 11:35:30;;;;;;;5.78;1.65;;;;;;;14.05;47.67;102123.97;5636257;26;20035;-74
2024/04/20 11:38:07;;;;;;;4.03;1.15;;;;;;;14.20;49.33;102124.56;5636461;26;20036;-75
2024/04/20 11:40:51;;;;;;;8.15;1.60;;;;;;;14.03;49.17;102126.75;5637017;26;20038;-75
2024/04/20 11:43:24;;;;;;;5.88;1.40;;;;;;;13.73;47.73;102124.72;5635165;26;20038;-76
2024/04/20 11:45:56;;;;;;;;;;;;;;;14.44;48.46;102127.03;5641772;26;20058;-78
2024/04/20 11:48:29;;;;;;;5.05;1.50;;;;;;;13.55;49.02;102126.97;5628859;26;20430;-75